Nearby METAR Reports

 

EGDR - Culdrose (navy), United Kingdom
Distance from station: S 10mi, 17km
Updated: 06/12/2021 23:50
Few Clouds
Few Clouds
 Wind from W
Wind: W 6 mph , 9 km/h
Temperature: 7°C
Wind Chill: 6°C
Dew Point: 3°C
Humidity: 76%
Barometer: 1012 hPa
Clouds: Few Clouds
Visibility: 6 miles , 10 km
Cloud details: Few Clouds 4572 m
2021/12/06 23:50 EGDR 062350Z AUTO 26005KT 9999 FEW150/// 07/03 Q1012
EGHQ - Newquay, United Kingdom
Distance from station: NE 17mi, 27km
Updated: 07/12/2021 00:20
Few Clouds
Few Clouds
 Wind from WSW
Wind: WSW 9 mph , 15 km/h
Temperature: 7°C
Wind Chill: 4°C
Dew Point: 2°C
Humidity: 71%
Barometer: 1011 hPa
Clouds: Few Clouds
Visibility: 6 miles , 10 km
Cloud details: Few Clouds 975 m
2021/12/07 00:20 EGHQ 070020Z AUTO 24008KT 9999 FEW032/// 07/02 Q1011
 
EGHC - Lands End, United Kingdom
Distance from station: WSW 22mi, 35km
Updated: 06/12/2021 17:20
NOT Current
Nearby showers, Few clouds
Nearby showers, Few clouds
 Wind from W
Wind: W 24 mph , 39 km/h
Temperature: 8°C
Wind Chill: 3°C
Dew Point: 4°C
Humidity: 76%
Barometer: 1012 hPa
Summary: Nearby Showers
Clouds: Few Clouds
Visibility: 6 miles , 10 km
Cloud details: Few Clouds 335 m
Few Clouds 610 m
2021/12/06 17:20 EGHC 061720Z 28021KT 9999 VCSH FEW011 FEW020CB 08/04 Q1012